KDHT/DHT METAR and TAF weather

Enter ICAO airport designator
Station Type Date Time Source
KDHT METAR 2022/01/28 00:21 UTC NOAA

KDHT 280021Z AUTO 03017G28KT 10SM BKN026 OVC100 01/M04 A3039 RMK AO2 PK WND 02028/0014 T00061039


Station Type Date Time Source
KDHT Decoded METAR 2022/01/28 00:21 UTC NOAA

DALHART MUNICIPAL AIRPORT, TX, United States (KDHT) 36-01N 102-33W 1217M
Jan 27, 2022 - 07:21 PM EST / 2022.01.28 0021 UTC
Wind: from the NNE (030 degrees) at 20 MPH (17 KT) gusting to 32 MPH (28 KT):0
Visibility: 10 mile(s):0
Sky conditions: overcast
Temperature: 33.1 F (0.6 C)
Windchill: 21 F (-6 C):1
Dew Point: 25.0 F (-3.9 C)
Relative Humidity: 71%
Pressure (altimeter): 30.39 in. Hg (1029 hPa)
ob: KDHT 280021Z AUTO 03017G28KT 10SM BKN026 OVC100 01/M04 A3039 RMK AO2 PK WND 02028/0014 T00061039
cycle: 0

Station Type Date Time Source
KDHT TAF 2022/01/27 18:28 UTC NOAA

TAF KDHT 271726Z 2718/2818 04014KT P6SM FEW250
FM272200 05015KT P6SM BKN200
FM280300 01009KT P6SM BKN070
FM280900 32007KT P6SM FEW250

Example: see airport list